Calgary Springbank Airport
CYBW : rendu visible

Aérodrome :











RETROUVEZ-NOUS SUR...

 
LOGIN :

S'inscrire | Disclaimer

   EN    FR    IT 

 









Légende :    VFR   VFR Marginal   IFR   IFR Intensif   IFR Très Intensif
Visi : 
Plafond : 
>= 8 km
>= 3000ft
5 à 8 km
1000 à 3000 ft
1500m à 5 km
500 à 1000 ft
800 à 1500m
200 à 500 ft
< 800m
< 200 ft
Symboles :   Orages  Brouillard  Fortes neiges  Fortes précipitations  Vent > 20 kt






- Altitude de l'aérodrome : 3937 ft
- Code IATA : YBW


CYBW - Calgary Springbank

DERNIER METAR :
  • 250800Z AUTO 31006KT 9SM CLR 10/10 A3005 RMK SLP186 DENSITY ALT 4200FT

METARs EXPIRÉS :
  • 250700Z AUTO VRB02KT 9SM CLR 11/10 A3006 RMK SLP187 DENSITY ALT 4300FT
  • 250600Z AUTO 21005KT 9SM OVC100 12/11 A3007 RMK SLP191 DENSITY ALT 4300FT

Prévision TAF périmée.
FIR CZEG / Amérique du Nord



MET'MAP, la Météo Aéronautique d'un coup d'oeil ! - Copyright ORBIFLY Décembre 2007 - Disclaimer

ORBIFLY MET'MAP TEAM :

Programmation & Développement : Alexandra Zaïnal
Sur une idée originale de : Baudouin d'Aumeries
Assistance à la programmation : Marc-Olivier Méhu
Soutien technique & logistique : Manuel Goepfert

Contact : metmap@orbifly.com




SOURCES & CREDITS :

   NOAA       Earth
Advisory